| time (UTC) | temp F | wind direction | speed MPH | gust MPH | rain 1hr in | rain 24hr in | rain mn in | humidity % | barometer mb |
| 20260504002847 | 65 | 202 | 4.0 | 11.0 | 0.00 | 0.00 | 0.00 | 6 | 983.0 |
| 20260504002317 | 65 | 229 | 4.0 | 15.0 | 0.00 | 0.00 | 0.00 | 6 | 983.1 |
| 20260504001846 | 66 | 229 | 5.0 | 9.0 | 0.00 | 0.00 | 0.00 | 6 | 983.1 |
| 20260504001318 | 66 | 222 | 4.0 | 9.0 | 0.00 | 0.00 | 0.00 | 5 | 983.0 |
| 20260504000846 | 67 | 209 | 5.0 | 10.0 | 0.00 | 0.00 | 0.00 | 5 | 982.9 |
| 20260504000318 | 67 | 207 | 4.0 | 7.0 | 0.00 | 0.00 | 0.00 | 5 | 983.0 |
| 20260503235846 | 67 | 215 | 4.0 | 9.0 | 0.00 | 0.00 | 0.00 | 5 | 983.1 |
| 20260503235317 | 67 | 209 | 4.0 | 9.0 | 0.00 | 0.00 | 0.00 | 5 | 983.1 |
| 20260503234846 | 67 | 226 | 4.0 | 12.0 | 0.00 | 0.00 | 0.00 | 5 | 983.2 |
| 20260503234317 | 67 | 209 | 6.0 | 9.0 | 0.00 | 0.00 | 0.00 | 5 | 983.2 |
| 20260503233846 | 68 | 205 | 4.0 | 8.0 | 0.00 | 0.00 | 0.00 | 5 | 983.3 |
| 20260503233317 | 67 | 224 | 5.0 | 8.0 | 0.00 | 0.00 | 0.00 | 5 | 983.4 |
| 20260503232846 | 67 | 192 | 5.0 | 12.0 | 0.00 | 0.00 | 0.00 | 5 | 983.4 |
| 20260503232318 | 68 | 212 | 6.0 | 9.0 | 0.00 | 0.00 | 0.00 | 5 | 983.4 |
| 20260503231846 | 68 | 212 | 6.0 | 15.0 | 0.00 | 0.00 | 0.00 | 5 | 983.4 |
| 20260503231317 | 68 | 225 | 5.0 | 11.0 | 0.00 | 0.00 | 0.00 | 5 | 983.6 |
| 20260503230846 | 67 | 214 | 6.0 | 11.0 | 0.00 | 0.00 | 0.00 | 5 | 983.6 |
| 20260503230317 | 67 | 218 | 6.0 | 12.0 | 0.00 | 0.00 | 0.00 | 5 | 983.6 |
| 20260503225846 | 67 | 213 | 7.0 | 14.0 | 0.00 | 0.00 | 0.00 | 5 | 983.7 |
| 20260503225319 | 68 | 217 | 5.0 | 11.0 | 0.00 | 0.00 | 0.00 | 5 | 983.7 |
| 20260503224846 | 67 | 229 | 7.0 | 10.0 | 0.00 | 0.00 | 0.00 | 5 | 983.9 |
| 20260503224317 | 66 | 201 | 7.0 | 12.0 | 0.00 | 0.00 | 0.00 | 5 | 983.9 |
| 20260503223846 | 65 | 207 | 6.0 | 13.0 | 0.00 | 0.00 | 0.00 | 5 | 983.9 |
| 20260503223317 | 65 | 225 | 6.0 | 9.0 | 0.00 | 0.00 | 0.00 | 5 | 983.9 |
| 20260503222846 | 65 | 209 | 8.0 | 14.0 | 0.00 | 0.00 | 0.00 | 5 | 983.9 |
| 20260503222317 | 65 | 257 | 7.0 | 16.0 | 0.00 | 0.00 | 0.00 | 6 | 983.9 |
| 20260503221846 | 65 | 215 | 7.0 | 13.0 | 0.00 | 0.00 | 0.00 | 5 | 983.9 |
| 20260503221317 | 65 | 221 | 6.0 | 11.0 | 0.00 | 0.00 | 0.00 | 5 | 984.1 |
| 20260503220846 | 65 | 204 | 4.0 | 9.0 | 0.00 | 0.00 | 0.00 | 6 | 984.1 |
| 20260503220317 | 65 | 199 | 4.0 | 7.0 | 0.00 | 0.00 | 0.00 | 6 | 984.2 |
| 20260503215846 | 65 | 210 | 6.0 | 12.0 | 0.00 | 0.00 | 0.00 | 6 | 984.4 |
| 20260503215317 | 65 | 216 | 5.0 | 9.0 | 0.00 | 0.00 | 0.00 | 6 | 984.4 |
| 20260503214846 | 65 | 196 | 4.0 | 8.0 | 0.00 | 0.00 | 0.00 | 6 | 984.2 |
| 20260503214317 | 66 | 220 | 5.0 | 9.0 | 0.00 | 0.00 | 0.00 | 6 | 984.2 |
| 20260503213846 | 66 | 213 | 5.0 | 14.0 | 0.00 | 0.00 | 0.00 | 5 | 984.2 |
| 20260503213317 | 66 | 202 | 5.0 | 8.0 | 0.00 | 0.00 | 0.00 | 6 | 984.2 |
| 20260503212846 | 65 | 209 | 4.0 | 9.0 | 0.00 | 0.00 | 0.00 | 6 | 984.5 |
| 20260503212318 | 64 | 238 | 5.0 | 9.0 | 0.00 | 0.00 | 0.00 | 6 | 984.7 |
| 20260503211847 | 64 | 201 | 7.0 | 12.0 | 0.00 | 0.00 | 0.00 | 6 | 984.7 |
| 20260503211319 | 64 | 207 | 5.0 | 10.0 | 0.00 | 0.00 | 0.00 | 6 | 984.7 |
| 20260503210847 | 64 | 223 | 6.0 | 12.0 | 0.00 | 0.00 | 0.00 | 6 | 984.7 |
| 20260503210318 | 64 | 197 | 9.0 | 16.0 | 0.00 | 0.00 | 0.00 | 6 | 984.8 |
| 20260503205847 | 64 | 203 | 7.0 | 13.0 | 0.00 | 0.00 | 0.00 | 5 | 984.9 |
| 20260503205318 | 64 | 214 | 7.0 | 15.0 | 0.00 | 0.00 | 0.00 | 5 | 984.9 |
| 20260503204847 | 65 | 208 | 7.0 | 15.0 | 0.00 | 0.00 | 0.00 | 5 | 985.1 |
| 20260503204318 | 66 | 233 | 7.0 | 14.0 | 0.00 | 0.00 | 0.00 | 5 | 985.1 |
| 20260503203847 | 66 | 243 | 10.0 | 13.0 | 0.00 | 0.00 | 0.00 | 5 | 985.1 |
| 20260503203317 | 66 | 214 | 9.0 | 12.0 | 0.00 | 0.00 | 0.00 | 5 | 985.1 |
| 20260503202846 | 67 | 202 | 7.0 | 16.0 | 0.00 | 0.00 | 0.00 | 5 | 985.1 |
| 20260503202317 | 66 | 200 | 7.0 | 12.0 | 0.00 | 0.00 | 0.00 | 5 | 984.9 |
| 20260503201846 | 66 | 239 | 11.0 | 18.0 | 0.00 | 0.00 | 0.00 | 5 | 984.9 |
| 20260503201318 | 66 | 177 | 8.0 | 16.0 | 0.00 | 0.00 | 0.00 | 5 | 985.4 |
| 20260503200846 | 67 | 267 | 10.0 | 17.0 | 0.00 | 0.00 | 0.00 | 5 | 985.4 |
| 20260503200318 | 67 | 204 | 12.0 | 16.0 | 0.00 | 0.00 | 0.00 | 5 | 985.6 |
| 20260503195846 | 67 | 233 | 9.0 | 17.0 | 0.00 | 0.00 | 0.00 | 5 | 985.6 |
| 20260503195317 | 66 | 233 | 8.0 | 18.0 | 0.00 | 0.00 | 0.00 | 5 | 985.6 |
| 20260503194846 | 66 | 216 | 11.0 | 18.0 | 0.00 | 0.00 | 0.00 | 5 | 985.9 |
| 20260503194317 | 66 | 212 | 10.0 | 16.0 | 0.00 | 0.00 | 0.00 | 5 | 985.9 |
| 20260503193846 | 64 | 209 | 7.0 | 11.0 | 0.00 | 0.00 | 0.00 | 5 | 986.3 |
| 20260503193317 | 63 | 211 | 8.0 | 15.0 | 0.00 | 0.00 | 0.00 | 5 | 986.6 |
| 20260503192846 | 63 | 181 | 8.0 | 15.0 | 0.00 | 0.00 | 0.00 | 5 | 986.6 |
| 20260503192318 | 63 | 240 | 8.0 | 14.0 | 0.00 | 0.00 | 0.00 | 5 | 986.7 |
| 20260503191846 | 63 | 300 | 8.0 | 15.0 | 0.00 | 0.00 | 0.00 | 5 | 986.7 |
| 20260503191317 | 62 | 204 | 7.0 | 12.0 | 0.00 | 0.00 | 0.00 | 6 | 987.1 |
| 20260503190846 | 62 | 192 | 11.0 | 18.0 | 0.00 | 0.00 | 0.00 | 5 | 987.1 |
| 20260503190318 | 62 | 206 | 6.0 | 14.0 | 0.00 | 0.00 | 0.00 | 5 | 987.3 |
| 20260503185846 | 63 | 226 | 5.0 | 10.0 | 0.00 | 0.00 | 0.00 | 5 | 987.6 |
| 20260503185318 | 62 | 229 | 10.0 | 18.0 | 0.00 | 0.00 | 0.00 | 5 | 987.6 |
| 20260503184846 | 61 | 214 | 9.0 | 17.0 | 0.00 | 0.00 | 0.00 | 5 | 987.7 |
| 20260503184317 | 61 | 230 | 6.0 | 13.0 | 0.00 | 0.00 | 0.00 | 5 | 987.7 |
| 20260503183846 | 61 | 235 | 8.0 | 14.0 | 0.00 | 0.00 | 0.00 | 5 | 988.0 |
| 20260503183317 | 61 | 217 | 6.0 | 11.0 | 0.00 | 0.00 | 0.00 | 5 | 988.1 |
| 20260503182846 | 61 | 180 | 7.0 | 15.0 | 0.00 | 0.00 | 0.00 | 5 | 988.1 |
| 20260503182317 | 61 | 242 | 6.0 | 15.0 | 0.00 | 0.00 | 0.00 | 5 | 988.2 |
| 20260503181846 | 62 | 215 | 6.0 | 12.0 | 0.00 | 0.00 | 0.00 | 5 | 988.2 |
| 20260503181317 | 61 | 203 | 7.0 | 12.0 | 0.00 | 0.00 | 0.00 | 5 | 988.7 |
| 20260503180846 | 61 | 211 | 9.0 | 18.0 | 0.00 | 0.00 | 0.00 | 5 | 988.7 |
| 20260503180317 | 61 | 222 | 8.0 | 13.0 | 0.00 | 0.00 | 0.00 | 5 | 988.6 |
| 20260503175846 | 61 | 245 | 7.0 | 13.0 | 0.00 | 0.00 | 0.00 | 5 | 988.6 |
| 20260503175317 | 62 | 223 | 7.0 | 15.0 | 0.00 | 0.00 | 0.00 | 5 | 988.6 |
| 20260503174846 | 62 | 213 | 7.0 | 15.0 | 0.00 | 0.00 | 0.00 | 5 | 988.6 |
| 20260503174317 | 63 | 207 | 8.0 | 15.0 | 0.00 | 0.00 | 0.00 | 5 | 988.6 |
| 20260503173846 | 62 | 216 | 9.0 | 15.0 | 0.00 | 0.00 | 0.00 | 5 | 988.8 |
| 20260503173317 | 61 | 200 | 8.0 | 13.0 | 0.00 | 0.00 | 0.00 | 5 | 988.9 |
| 20260503172847 | 62 | 223 | 7.0 | 11.0 | 0.00 | 0.00 | 0.00 | 5 | 988.9 |
| 20260503172318 | 61 | 219 | 6.0 | 12.0 | 0.00 | 0.00 | 0.00 | 5 | 988.9 |
| 20260503171847 | 61 | 207 | 6.0 | 10.0 | 0.00 | 0.00 | 0.00 | 6 | 988.9 |
| 20260503171318 | 61 | 220 | 7.0 | 11.0 | 0.00 | 0.00 | 0.00 | 5 | 989.2 |
| 20260503170847 | 61 | 240 | 9.0 | 15.0 | 0.00 | 0.00 | 0.00 | 5 | 989.2 |
| 20260503170318 | 61 | 222 | 9.0 | 12.0 | 0.00 | 0.00 | 0.00 | 5 | 989.2 |
| 20260503150846 | 59 | 218 | 9.0 | 13.0 | 0.00 | 0.00 | 0.00 | 6 | 991.2 |
| 20260503150319 | 58 | 225 | 7.0 | 15.0 | 0.00 | 0.00 | 0.00 | 7 | 991.3 |
| 20260503131318 | 52 | 221 | 7.0 | 12.0 | 0.00 | 0.00 | 0.00 | 7 | 992.1 |
| 20260503130847 | 53 | 240 | 5.0 | 11.0 | 0.00 | 0.00 | 0.00 | 7 | 992.1 |
| 20260503130319 | 53 | 226 | 5.0 | 10.0 | 0.00 | 0.00 | 0.00 | 7 | 992.0 |
| 20260503110317 | 44 | 205 | 4.0 | 10.0 | 0.00 | 0.00 | 0.00 | 7 | 991.6 |
| 20260503090318 | 44 | 199 | 3.0 | 7.0 | 0.00 | 0.00 | 0.00 | 7 | 991.9 |
| 20260503081318 | 44 | 201 | 3.0 | 6.0 | 0.00 | 0.00 | 0.00 | 7 | 992.0 |
| 20260503080846 | 44 | 209 | 3.0 | 5.0 | 0.00 | 0.00 | 0.00 | 7 | 992.1 |
| 20260503080317 | 43 | 191 | 3.0 | 9.0 | 0.00 | 0.00 | 0.00 | 7 | 992.0 |
| 20260503072846 | 44 | 205 | 3.0 | 6.0 | 0.00 | 0.00 | 0.00 | 7 | 992.1 |
| 20260503072317 | 44 | 230 | 3.0 | 8.0 | 0.00 | 0.00 | 0.00 | 7 | 992.1 |
| 20260503071846 | 44 | 216 | 3.0 | 6.0 | 0.00 | 0.00 | 0.00 | 7 | 992.1 |
| 20260503071318 | 44 | 194 | 2.0 | 4.0 | 0.00 | 0.00 | 0.00 | 7 | 992.2 |
| 20260503070846 | 44 | 210 | 2.0 | 5.0 | 0.00 | 0.00 | 0.00 | 7 | 992.2 |
| 20260503070317 | 44 | 200 | 2.0 | 4.0 | 0.00 | 0.00 | 0.00 | 7 | 992.2 |
| 20260503060317 | 44 | 218 | 1.0 | 2.0 | 0.00 | 0.00 | 0.00 | 7 | 992.7 |
| 20260503054846 | 44 | 201 | 1.0 | 2.0 | 0.00 | 0.00 | 0.00 | 7 | 992.8 |
| 20260503054318 | 43 | 216 | 1.0 | 2.0 | 0.00 | 0.00 | 0.00 | 7 | 992.8 |
| 20260503053847 | 43 | 202 | 1.0 | 2.0 | 0.00 | 0.00 | 0.00 | 7 | 992.8 |
| 20260503053318 | 43 | 210 | 1.0 | 2.0 | 0.00 | 0.00 | 0.00 | 7 | 992.7 |
| 20260503052847 | 43 | 215 | 1.0 | 4.0 | 0.00 | 0.00 | 0.00 | 7 | 992.7 |
| 20260503052318 | 43 | 194 | 1.0 | 2.0 | 0.00 | 0.00 | 0.00 | 7 | 992.8 |
| 20260503051847 | 43 | 213 | 1.0 | 2.0 | 0.00 | 0.00 | 0.00 | 7 | 992.8 |
| 20260503051318 | 43 | 191 | 1.0 | 2.0 | 0.00 | 0.00 | 0.00 | 7 | 992.9 |
| 20260503050847 | 43 | 209 | 1.0 | 2.0 | 0.00 | 0.00 | 0.00 | 7 | 992.9 |
| 20260503050318 | 43 | 202 | 1.0 | 2.0 | 0.00 | 0.00 | 0.00 | 7 | 992.8 |
| 20260503045847 | 42 | 221 | 1.0 | 2.0 | 0.00 | 0.00 | 0.00 | 7 | 992.8 |
| 20260503045318 | 42 | 232 | 0.0 | 1.0 | 0.00 | 0.00 | 0.00 | 7 | 992.8 |
| 20260503044846 | 42 | 212 | 0.0 | 2.0 | 0.00 | 0.00 | 0.00 | 7 | 992.8 |
| 20260503044317 | 42 | 200 | 1.0 | 1.0 | 0.00 | 0.00 | 0.00 | 7 | 992.8 |
| 20260503043846 | 42 | 202 | 0.0 | 1.0 | 0.00 | 0.00 | 0.00 | 7 | 992.7 |
| 20260503043318 | 42 | 166 | 0.0 | 1.0 | 0.00 | 0.00 | 0.00 | 7 | 992.7 |
| 20260503042846 | 41 | 170 | 0.0 | 1.0 | 0.00 | 0.00 | 0.00 | 7 | 992.7 |
| 20260503042318 | 42 | 202 | 0.0 | 1.0 | 0.00 | 0.00 | 0.00 | 7 | 992.8 |
| 20260503041846 | 41 | 184 | 0.0 | 1.0 | 0.00 | 0.00 | 0.00 | 7 | 992.8 |
| 20260503041317 | 41 | 0 | 0.0 | 0.0 | 0.00 | 0.00 | 0.00 | 7 | 992.8 |
| 20260503040846 | 41 | 0 | 0.0 | 0.0 | 0.00 | 0.00 | 0.00 | 7 | 992.9 |
| 20260503040317 | 41 | 0 | 0.0 | 0.0 | 0.00 | 0.00 | 0.00 | 7 | 992.9 |
| 20260503035846 | 42 | 0 | 0.0 | 0.0 | 0.00 | 0.00 | 0.00 | 7 | 992.8 |
| 20260503035317 | 42 | 0 | 0.0 | 0.0 | 0.00 | 0.00 | 0.00 | 7 | 992.8 |
| 20260503034846 | 42 | 0 | 0.0 | 0.0 | 0.00 | 0.00 | 0.00 | 7 | 992.9 |
| 20260503034317 | 42 | 247 | 0.0 | 1.0 | 0.00 | 0.00 | 0.00 | 7 | 992.9 |
| 20260503033846 | 42 | 0 | 0.0 | 0.0 | 0.00 | 0.00 | 0.00 | 7 | 992.9 |
| 20260503033320 | 42 | 0 | 0.0 | 0.0 | 0.00 | 0.00 | 0.00 | 7 | 992.9 |
| 20260503032846 | 42 | 213 | 0.0 | 1.0 | 0.00 | 0.00 | 0.00 | 7 | 992.9 |
| 20260503032318 | 42 | 0 | 0.0 | 1.0 | 0.00 | 0.00 | 0.00 | 7 | 993.1 |
| 20260503031846 | 42 | 202 | 0.0 | 2.0 | 0.00 | 0.00 | 0.00 | 7 | 993.1 |
| 20260503031317 | 42 | 0 | 0.0 | 0.0 | 0.00 | 0.00 | 0.00 | 7 | 993.2 |
| 20260503030846 | 42 | 0 | 0.0 | 0.0 | 0.00 | 0.00 | 0.00 | 7 | 993.2 |
| 20260503030317 | 42 | 0 | 0.0 | 0.0 | 0.00 | 0.00 | 0.00 | 7 | 993.1 |
| 20260503025846 | 42 | 0 | 0.0 | 0.0 | 0.00 | 0.00 | 0.00 | 7 | 993.1 |
| 20260503025317 | 42 | 0 | 0.0 | 0.0 | 0.00 | 0.00 | 0.00 | 7 | 993.0 |
| 20260503024846 | 42 | 0 | 0.0 | 0.0 | 0.00 | 0.00 | 0.00 | 7 | 992.9 |
| 20260503024317 | 42 | 0 | 0.0 | 0.0 | 0.00 | 0.00 | 0.00 | 7 | 992.9 |
| 20260503023846 | 42 | 0 | 0.0 | 0.0 | 0.00 | 0.00 | 0.00 | 7 | 992.9 |
| 20260503023317 | 42 | 0 | 0.0 | 0.0 | 0.00 | 0.00 | 0.00 | 7 | 992.9 |
| 20260503022846 | 43 | 0 | 0.0 | 0.0 | 0.00 | 0.00 | 0.00 | 7 | 992.8 |
| 20260503022317 | 43 | 0 | 0.0 | 0.0 | 0.00 | 0.00 | 0.00 | 7 | 992.8 |
| 20260503021846 | 43 | 0 | 0.0 | 0.0 | 0.00 | 0.00 | 0.00 | 7 | 992.8 |
| 20260503021317 | 43 | 0 | 0.0 | 0.0 | 0.00 | 0.00 | 0.00 | 7 | 992.8 |
| 20260503020846 | 43 | 0 | 0.0 | 0.0 | 0.00 | 0.00 | 0.00 | 7 | 992.8 |
| 20260503020317 | 44 | 0 | 0.0 | 0.0 | 0.00 | 0.00 | 0.00 | 7 | 992.6 |
| 20260503015847 | 44 | 0 | 0.0 | 0.0 | 0.00 | 0.00 | 0.00 | 7 | 992.6 |
| 20260503015318 | 45 | 0 | 0.0 | 0.0 | 0.00 | 0.00 | 0.00 | 7 | 992.6 |
| 20260503014847 | 45 | 0 | 0.0 | 1.0 | 0.00 | 0.00 | 0.00 | 7 | 992.6 |
| 20260503014318 | 45 | 0 | 0.0 | 0.0 | 0.00 | 0.00 | 0.00 | 7 | 992.6 |
| 20260503013847 | 45 | 0 | 0.0 | 0.0 | 0.00 | 0.00 | 0.00 | 6 | 992.6 |
| 20260503013318 | 46 | 0 | 0.0 | 0.0 | 0.00 | 0.00 | 0.00 | 6 | 992.6 |
| 20260503012847 | 47 | 0 | 0.0 | 0.0 | 0.00 | 0.00 | 0.00 | 6 | 992.5 |
| 20260503012317 | 47 | 0 | 0.0 | 0.0 | 0.00 | 0.00 | 0.00 | 6 | 992.4 |
| 20260503011847 | 48 | 0 | 0.0 | 0.0 | 0.00 | 0.00 | 0.00 | 6 | 992.4 |
| 20260503011318 | 49 | 0 | 0.0 | 0.0 | 0.00 | 0.00 | 0.00 | 6 | 992.4 |
| 20260503010846 | 49 | 0 | 0.0 | 0.0 | 0.00 | 0.00 | 0.00 | 6 | 992.4 |
| 20260503010318 | 50 | 0 | 0.0 | 0.0 | 0.00 | 0.00 | 0.00 | 6 | 992.4 |
| 20260503005846 | 51 | 0 | 0.0 | 0.0 | 0.00 | 0.00 | 0.00 | 6 | 992.4 |
| 20260503005317 | 52 | 0 | 0.0 | 0.0 | 0.00 | 0.00 | 0.00 | 5 | 992.4 |
| 20260503004846 | 53 | 0 | 0.0 | 0.0 | 0.00 | 0.00 | 0.00 | 5 | 992.4 |
| 20260503004318 | 54 | 0 | 0.0 | 0.0 | 0.00 | 0.00 | 0.00 | 5 | 992.4 |
| 20260503003846 | 55 | 0 | 0.0 | 0.0 | 0.00 | 0.00 | 0.00 | 5 | 992.4 |
| 20260503003317 | 56 | 270 | 0.0 | 2.0 | 0.00 | 0.00 | 0.00 | 5 | 992.4 |